Time;durP1;ratioP1;P1;durP2;ratioP2;P2;SDS_P1;SDS_P2;PMS_P1;PMS_P2;Temp;Humidity;BMP_temperature;BMP_pressure;BME280_temperature;BME280_humidity;BME280_pressure;Samples;Min_cycle;Max_cycle;Signal;HPM_P1;HPM_P2
2022/09/10 00:00:32;;;;;;;3.73;1.80;;;;;;;25.55;45.54;98837.72;6073446;23;20160;-95
2022/09/10 00:02:57;;;;;;;3.90;1.50;;;;;;;25.57;45.84;98849.09;6073659;23;20184;-95
2022/09/10 00:05:23;;;;;;;4.27;1.47;;;;;;;25.44;46.04;98843.50;6073082;23;20163;-96
2022/09/10 00:07:49;;;;;;;2.60;1.53;;;;;;;25.30;46.55;98846.97;6073186;23;20181;-95
2022/09/10 00:10:14;;;;;;;3.80;1.50;;;;;;;25.23;46.19;98840.66;6072851;23;20165;-96
2022/09/10 00:12:41;;;;;;;2.63;1.30;;;;;;;25.27;46.67;98845.47;6072941;23;20163;-95
2022/09/10 00:15:08;;;;;;;3.97;1.50;;;;;;;25.32;46.19;98834.19;6073048;23;20653;-95
2022/09/10 00:17:35;;;;;;;3.90;1.70;;;;;;;25.21;46.77;98830.09;6074389;23;20492;-95
2022/09/10 00:20:02;;;;;;;2.53;1.50;;;;;;;25.16;47.36;98829.00;6073584;23;20168;-94
2022/09/10 00:22:27;;;;;;;5.53;2.00;;;;;;;25.18;47.68;98829.63;6073269;23;20562;-95
2022/09/10 00:24:55;;;;;;;3.83;2.43;;;;;;;25.24;47.19;98828.91;6073947;23;20160;-95
2022/09/10 00:27:21;;;;;;;3.67;2.27;;;;;;;25.22;46.84;98823.72;6073590;23;20160;-96
2022/09/10 00:29:51;;;;;;;3.83;1.53;;;;;;;25.11;47.41;98834.03;6075477;23;20167;-95
2022/09/10 00:32:17;;;;;;;5.17;1.63;;;;;;;25.10;47.37;98818.97;6076242;23;20149;-94
2022/09/10 00:34:42;;;;;;;2.67;1.37;;;;;;;25.06;47.51;98818.50;6075869;23;20264;-95
2022/09/10 00:37:08;;;;;;;4.50;1.93;;;;;;;25.10;47.66;98829.72;6074784;23;20577;-95
2022/09/10 00:39:34;;;;;;;3.80;1.90;;;;;;;25.08;47.74;98837.09;6074585;23;20628;-96
2022/09/10 00:42:02;;;;;;;3.77;1.90;;;;;;;25.01;48.21;98836.97;6074654;23;20160;-95
2022/09/10 00:44:39;;;;;;;3.33;1.70;;;;;;;24.88;47.93;98832.22;6075123;23;20288;-95
2022/09/10 00:47:20;;;;;;;12.50;2.50;;;;;;;24.75;48.61;98836.44;6074696;23;20157;-95
2022/09/10 00:49:51;;;;;;;3.73;2.00;;;;;;;24.73;48.94;98827.75;6074742;23;20148;-95
2022/09/10 00:52:17;;;;;;;3.97;2.00;;;;;;;24.63;49.77;98819.13;6074923;23;20236;-95
2022/09/10 00:54:44;;;;;;;3.47;1.60;;;;;;;24.61;49.91;98819.28;6074618;23;20615;-95
2022/09/10 00:57:16;;;;;;;5.03;2.53;;;;;;;24.55;50.31;98825.38;6074865;23;20159;-94
2022/09/10 00:59:47;;;;;;;4.23;2.23;;;;;;;24.44;50.93;98818.56;6075612;23;20602;-95
2022/09/10 01:02:13;;;;;;;6.27;2.43;;;;;;;24.44;50.83;98809.69;6075943;23;20205;-96
2022/09/10 01:04:39;;;;;;;4.80;2.43;;;;;;;24.49;50.50;98807.31;6075402;23;20724;-96
2022/09/10 01:07:08;;;;;;;4.87;2.20;;;;;;;24.51;50.78;98805.28;6074680;23;20215;-95
2022/09/10 01:09:35;;;;;;;6.03;2.90;;;;;;;24.56;50.21;98818.97;6074375;23;20148;-95
2022/09/10 01:12:29;;;;;;;4.10;2.87;;;;;;;24.54;49.88;98820.16;6074894;23;20160;-95
2022/09/10 01:15:18;;;;;;;4.50;2.50;;;;;;;24.43;50.88;98832.94;6074587;23;20141;-94
2022/09/10 01:18:05;;;;;;;5.77;2.70;;;;;;;24.36;50.83;98825.78;6075579;23;20180;-96
2022/09/10 01:20:39;;;;;;;6.13;2.97;;;;;;;24.26;51.65;98817.16;6076320;23;20163;-95
2022/09/10 01:23:16;;;;;;;5.37;2.63;;;;;;;24.23;51.34;98806.78;6076108;23;20568;-96
2022/09/10 01:25:51;;;;;;;4.30;2.13;;;;;;;24.25;51.58;98810.09;6076798;23;20151;-95
2022/09/10 01:28:39;;;;;;;3.37;1.83;;;;;;;24.22;50.95;98803.25;6075283;23;20187;-96
2022/09/10 01:31:20;;;;;;;4.07;1.87;;;;;;;24.19;50.99;98798.25;6075073;23;20149;-95
2022/09/10 01:34:03;;;;;;;3.37;2.03;;;;;;;24.20;50.31;98804.44;6076191;23;20145;-95
2022/09/10 01:36:37;;;;;;;5.63;1.63;;;;;;;24.20;50.12;98810.63;6075580;23;20144;-95
2022/09/10 01:39:06;;;;;;;4.37;1.90;;;;;;;24.20;50.46;98805.28;6074804;23;20263;-95
2022/09/10 01:41:33;;;;;;;13.30;2.63;;;;;;;24.12;51.06;98809.84;6074092;23;20223;-96
2022/09/10 01:44:08;;;;;;;7.10;2.20;;;;;;;24.12;50.86;98817.88;6074330;23;20241;-96
2022/09/10 01:46:48;;;;;;;5.10;2.33;;;;;;;24.15;50.70;98822.88;6074187;23;20148;-95
2022/09/10 01:49:35;;;;;;;3.40;1.97;;;;;;;24.02;51.04;98828.75;6075335;23;20140;-96
2022/09/10 01:52:27;;;;;;;4.23;2.23;;;;;;;23.81;51.84;98821.31;6075970;23;20227;-96
2022/09/10 01:55:13;;;;;;;3.57;1.93;;;;;;;23.82;51.92;98828.31;6076076;23;20176;-96
2022/09/10 01:57:47;;;;;;;3.90;2.00;;;;;;;23.87;51.49;98827.81;6074260;23;20180;-95
2022/09/10 02:00:16;;;;;;;3.67;1.97;;;;;;;23.70;52.39;98824.34;6075424;23;20552;-95
2022/09/10 02:02:52;;;;;;;3.70;1.90;;;;;;;23.71;52.51;98830.53;6075727;23;20192;-96
2022/09/10 02:05:23;;;;;;;4.37;1.90;;;;;;;23.77;51.87;98829.81;6074990;23;20154;-95
2022/09/10 02:07:53;;;;;;;2.67;1.67;;;;;;;23.78;51.50;98837.69;6075725;23;20141;-96
2022/09/10 02:10:19;;;;;;;4.60;2.10;;;;;;;23.68;51.98;98831.72;6076146;23;20152;-95
2022/09/10 02:12:50;;;;;;;3.90;1.67;;;;;;;23.67;52.07;98834.53;6075791;23;20581;-95
2022/09/10 02:15:17;;;;;;;3.37;1.80;;;;;;;23.56;52.48;98838.41;6075264;23;20194;-95
2022/09/10 02:17:45;;;;;;;4.07;2.13;;;;;;;23.61;51.78;98845.94;6074408;23;20188;-95
2022/09/10 02:20:14;;;;;;;7.27;1.90;;;;;;;23.46;52.57;98843.09;6074632;23;20165;-95
2022/09/10 02:22:51;;;;;;;4.47;1.67;;;;;;;23.37;52.65;98846.81;6075386;23;20226;-95
2022/09/10 02:25:16;;;;;;;4.93;2.10;;;;;;;23.42;52.92;98840.94;6075002;23;20203;-95
2022/09/10 02:27:43;;;;;;;4.03;1.83;;;;;;;23.40;52.97;98835.75;6075666;23;20164;-95
2022/09/10 02:30:12;;;;;;;3.20;1.90;;;;;;;23.47;52.72;98836.75;6076652;23;20156;-95
2022/09/10 02:32:37;;;;;;;5.57;2.17;;;;;;;23.43;53.32;98835.41;6074942;23;20206;-95
2022/09/10 02:35:03;;;;;;;5.60;2.10;;;;;;;23.34;53.29;98832.91;6075529;23;20153;-95
2022/09/10 02:37:29;;;;;;;6.13;2.00;;;;;;;23.32;53.40;98829.56;6075363;23;20160;-95
2022/09/10 02:39:54;;;;;;;4.23;2.30;;;;;;;23.27;53.60;98822.00;6074676;23;20639;-95
2022/09/10 02:42:21;;;;;;;4.77;2.23;;;;;;;23.26;53.60;98831.06;6074508;23;20401;-94
2022/09/10 02:44:46;;;;;;;4.07;2.10;;;;;;;23.28;53.53;98831.72;6075408;23;20155;-96
2022/09/10 02:47:14;;;;;;;7.60;2.57;;;;;;;23.34;53.45;98827.53;6075184;23;20215;-95
2022/09/10 02:49:43;;;;;;;3.93;2.03;;;;;;;23.28;53.35;98834.41;6075349;23;20144;-95
2022/09/10 02:52:14;;;;;;;7.50;2.30;;;;;;;23.27;53.58;98822.84;6075326;23;20156;-96
2022/09/10 02:54:39;;;;;;;4.47;2.27;;;;;;;23.27;53.66;98822.84;6074815;23;20202;-95
2022/09/10 02:57:05;;;;;;;3.20;1.93;;;;;;;23.30;53.58;98832.38;6074714;23;20156;-95
2022/09/10 02:59:31;;;;;;;3.70;2.27;;;;;;;23.31;53.28;98836.75;6074372;23;20243;-95
2022/09/10 03:01:59;;;;;;;3.83;1.77;;;;;;;23.24;53.16;98835.75;6073926;23;20156;-95
2022/09/10 03:04:25;;;;;;;3.63;1.97;;;;;;;23.18;53.25;98834.56;6074762;23;20157;-95
2022/09/10 03:06:54;;;;;;;3.87;1.90;;;;;;;23.08;54.10;98833.06;6073951;23;20160;-95
2022/09/10 03:09:23;;;;;;;3.33;1.73;;;;;;;23.01;54.40;98829.38;6076014;23;20152;-95
2022/09/10 03:11:50;;;;;;;4.07;2.10;;;;;;;23.05;54.17;98834.25;6074315;23;20156;-95
2022/09/10 03:14:19;;;;;;;4.20;2.50;;;;;;;23.03;53.86;98827.41;6075071;23;20156;-95
2022/09/10 03:16:54;;;;;;;4.07;2.07;;;;;;;22.97;54.08;98820.88;6075999;23;20511;-95
2022/09/10 03:19:20;;;;;;;3.73;2.27;;;;;;;22.98;53.85;98819.03;6074886;23;20176;-96
2022/09/10 03:21:46;;;;;;;3.80;2.17;;;;;;;22.98;53.73;98817.19;6075028;23;20156;-96
2022/09/10 03:24:14;;;;;;;6.23;2.27;;;;;;;23.00;54.16;98811.69;6075169;23;20188;-95
2022/09/10 03:26:40;;;;;;;4.43;2.23;;;;;;;23.03;53.63;98824.72;6074517;23;20171;-95
2022/09/10 03:29:06;;;;;;;10.70;2.90;;;;;;;23.01;53.27;98827.53;6074195;23;20152;-95
2022/09/10 03:31:35;;;;;;;4.40;2.30;;;;;;;22.93;53.23;98830.22;6074853;23;20180;-95
2022/09/10 03:36:54;;;;;;;5.00;2.33;;;;;;;22.87;54.02;98825.53;6100498;23;20140;-95
2022/09/10 03:39:32;;;;;;;;;;;;;;;;;;;;;
2022/09/10 03:42:11;;;;;;;3.87;2.27;;;;;;;22.84;53.89;98833.88;6099192;23;20227;-96
2022/09/10 03:44:37;;;;;;;9.23;2.43;;;;;;;22.85;53.78;98837.41;6075029;23;20148;-96
2022/09/10 03:47:15;;;;;;;6.37;2.20;;;;;;;22.83;53.89;98844.72;6074481;23;20238;-96
2022/09/10 03:49:48;;;;;;;4.80;1.67;;;;;;;22.79;54.13;98849.59;6075007;23;20140;-95
2022/09/10 03:52:27;;;;;;;;;;;;;;;;;;;;;
2022/09/10 03:55:00;;;;;;;7.70;2.33;;;;;;;22.60;54.65;98845.34;6099912;23;20263;-95
2022/09/10 03:57:37;;;;;;;5.40;2.30;;;;;;;22.60;54.56;98856.03;6074713;23;20160;-96
2022/09/10 04:00:04;;;;;;;4.40;2.53;;;;;;;22.68;54.48;98843.72;6075000;23;20587;-96
2022/09/10 04:02:57;;;;;;;3.90;1.80;;;;;;;22.63;54.90;98853.06;6075161;23;20239;-96
2022/09/10 04:05:31;;;;;;;3.40;2.10;;;;;;;22.60;55.10;98860.53;6101150;23;20175;-95
2022/09/10 04:08:01;;;;;;;3.77;2.03;;;;;;;22.59;55.14;98858.84;6076420;23;20136;-96
2022/09/10 04:10:32;;;;;;;4.30;2.23;;;;;;;22.61;55.42;98852.34;6076780;23;20548;-96
2022/09/10 04:13:10;;;;;;;4.67;2.27;;;;;;;22.58;55.05;98852.69;6076745;23;20491;-95
2022/09/10 04:15:38;;;;;;;4.63;2.13;;;;;;;22.57;55.19;98837.66;6076039;23;20246;-95
2022/09/10 04:18:07;;;;;;;8.40;2.00;;;;;;;22.54;55.49;98839.78;6076090;23;20544;-95
2022/09/10 04:20:36;;;;;;;4.20;2.40;;;;;;;22.52;55.45;98844.47;6076136;23;20509;-95
2022/09/10 04:23:04;;;;;;;9.77;2.33;;;;;;;22.52;55.89;98837.31;6076844;23;20157;-96
2022/09/10 04:25:35;;;;;;;6.07;2.30;;;;;;;22.56;55.83;98833.28;6075467;23;20180;-95
2022/09/10 04:28:10;;;;;;;4.47;2.63;;;;;;;22.64;55.32;98838.69;6075959;23;20231;-95
2022/09/10 04:30:40;;;;;;;4.17;1.80;;;;;;;22.72;55.38;98843.22;6075843;23;20143;-95
2022/09/10 04:33:06;;;;;;;3.03;1.60;;;;;;;22.73;55.57;98852.91;6075790;23;20232;-95
2022/09/10 04:35:34;;;;;;;3.27;1.97;;;;;;;22.76;55.49;98852.59;6075661;23;20161;-96
2022/09/10 04:38:00;;;;;;;4.53;1.80;;;;;;;22.80;55.25;98848.56;6075689;23;20181;-95
2022/09/10 04:40:28;;;;;;;4.57;2.37;;;;;;;22.76;55.52;98849.91;6075723;23;20191;-96
2022/09/10 04:43:03;;;;;;;10.37;2.23;;;;;;;22.57;56.39;98845.66;6076446;23;20236;-95
2022/09/10 04:45:33;;;;;;;5.30;2.13;;;;;;;22.71;56.08;98846.91;6075200;23;20152;-95
2022/09/10 04:48:03;;;;;;;6.43;1.83;;;;;;;22.86;55.86;98849.75;6074597;23;20152;-95
2022/09/10 04:50:44;;;;;;;;;;;;;;;;;;;;;
2022/09/10 04:53:18;;;;;;;5.20;2.00;;;;;;;23.08;54.94;98854.47;6100889;23;20225;-95
2022/09/10 04:55:50;;;;;;;4.67;1.60;;;;;;;23.08;55.28;98855.31;6069656;23;20288;-95
2022/09/10 04:58:28;;;;;;;5.43;2.43;;;;;;;23.09;55.92;98842.75;6069925;23;20197;-95
2022/09/10 05:00:57;;;;;;;3.50;2.17;;;;;;;23.15;56.07;98850.13;6070387;23;20161;-95
2022/09/10 05:03:25;;;;;;;4.53;2.60;;;;;;;23.27;55.86;98849.59;6069809;23;20180;-96
2022/09/10 05:06:00;;;;;;;3.43;1.77;;;;;;;23.36;56.19;98853.13;6070288;23;20161;-95
2022/09/10 05:08:35;;;;;;;6.00;2.07;;;;;;;23.42;56.00;98847.13;6094266;23;20145;-95
2022/09/10 05:11:01;;;;;;;3.63;1.80;;;;;;;23.36;56.58;98847.78;6070687;23;20144;-95
2022/09/10 05:13:30;;;;;;;6.97;2.30;;;;;;;23.51;56.39;98848.78;6069609;23;20157;-95
2022/09/10 05:15:59;;;;;;;5.30;2.40;;;;;;;23.60;56.46;98845.09;6070292;23;20526;-96
2022/09/10 05:18:32;;;;;;;6.43;2.13;;;;;;;23.69;56.13;98836.03;6069039;23;20189;-95
2022/09/10 05:21:00;;;;;;;13.73;2.90;;;;;;;23.78;55.75;98829.66;6069539;23;20154;-96
2022/09/10 05:23:26;;;;;;;5.57;2.63;;;;;;;23.81;55.54;98823.97;6069164;23;20157;-95
2022/09/10 05:25:52;;;;;;;4.33;2.13;;;;;;;23.80;55.94;98819.63;6069002;23;20165;-95
2022/09/10 05:28:19;;;;;;;9.83;2.27;;;;;;;23.94;55.65;98822.59;6069576;23;20157;-95
2022/09/10 05:30:52;;;;;;;7.13;2.00;;;;;;;24.01;55.40;98831.59;6068934;23;20164;-95
2022/09/10 05:33:20;;;;;;;4.47;2.33;;;;;;;24.14;55.51;98827.41;6070014;23;20149;-95
2022/09/10 05:35:55;;;;;;;8.67;2.80;;;;;;;24.23;54.92;98830.88;6092353;23;20581;-94
2022/09/10 05:38:25;;;;;;;9.53;2.13;;;;;;;24.36;55.03;98832.00;6068833;23;20632;-95
2022/09/10 05:40:51;;;;;;;9.53;2.97;;;;;;;24.37;54.32;98835.53;6069114;23;20160;-95
2022/09/10 05:43:19;;;;;;;5.27;2.80;;;;;;;24.44;54.50;98836.47;6069837;23;20489;-95
2022/09/10 05:45:45;;;;;;;5.10;2.60;;;;;;;24.52;54.63;98835.59;6069380;23;20161;-95
2022/09/10 05:48:13;;;;;;;6.03;3.03;;;;;;;24.55;54.59;98836.09;6069166;23;20164;-95
2022/09/10 05:50:39;;;;;;;4.00;2.40;;;;;;;24.68;54.55;98830.13;6093193;23;20153;-95
2022/09/10 05:53:04;;;;;;;8.30;2.93;;;;;;;24.87;53.99;98818.97;6093045;23;20161;-95
2022/09/10 05:55:31;;;;;;;6.80;3.50;;;;;;;24.99;53.59;98823.75;6068767;23;20616;-95
2022/09/10 05:57:58;;;;;;;4.33;2.53;;;;;;;25.11;53.42;98826.84;6069474;23;20251;-95
2022/09/10 06:00:26;;;;;;;6.80;2.90;;;;;;;25.22;52.63;98828.25;6068939;23;20167;-95
2022/09/10 06:02:52;;;;;;;9.57;2.47;;;;;;;25.20;52.68;98827.59;6068837;23;20244;-95
2022/09/10 06:05:20;;;;;;;10.20;3.23;;;;;;;25.40;53.05;98826.06;6068690;23;20165;-95
2022/09/10 06:07:45;;;;;;;6.07;2.87;;;;;;;25.60;52.73;98832.63;6068850;23;20176;-94
2022/09/10 06:10:14;;;;;;;12.20;3.60;;;;;;;25.79;50.85;98818.66;6068657;23;20172;-96
2022/09/10 06:12:48;;;;;;;8.50;3.37;;;;;;;25.91;51.73;98827.94;6068661;23;20191;-95
2022/09/10 06:15:15;;;;;;;6.77;3.00;;;;;;;26.05;51.29;98827.09;6068953;23;20153;-96
2022/09/10 06:17:44;;;;;;;5.67;2.83;;;;;;;26.09;50.44;98825.72;6069229;23;20169;-95
2022/09/10 06:20:19;;;;;;;7.27;2.80;;;;;;;26.27;49.84;98819.97;6069260;23;20161;-95
2022/09/10 06:22:49;;;;;;;11.40;4.10;;;;;;;26.34;49.80;98826.25;6069149;23;20570;-95
2022/09/10 06:25:15;;;;;;;8.10;2.73;;;;;;;26.52;49.79;98828.56;6068609;23;20587;-95
2022/09/10 06:27:40;;;;;;;6.63;2.50;;;;;;;26.71;48.77;98835.97;6068988;23;20153;-95
2022/09/10 06:30:06;;;;;;;10.57;3.30;;;;;;;26.83;49.16;98838.00;6068320;23;20236;-95
2022/09/10 06:32:34;;;;;;;6.23;3.13;;;;;;;26.93;47.88;98836.88;6068546;23;20153;-95
2022/09/10 06:35:00;;;;;;;7.57;2.77;;;;;;;27.14;48.61;98834.19;6068669;23;20279;-95
2022/09/10 06:37:25;;;;;;;12.38;3.55;;;;;;;27.43;47.61;98829.53;6068434;23;20173;-95
2022/09/10 06:39:51;;;;;;;7.65;3.17;;;;;;;27.54;47.21;98835.38;6069189;23;20216;-95
2022/09/10 06:45:34;;;;;;;;;;;;;;;;;;;;;
2022/09/10 06:48:31;;;;;;;;;;;;;;;;;;;;;
2022/09/10 06:51:11;;;;;;;8.40;3.38;;;;;;;28.48;45.93;98832.84;6069438;23;20240;-96
2022/09/10 06:54:15;;;;;;;5.72;2.28;;;;;;;28.81;46.14;98821.34;6069303;23;20153;-96
2022/09/10 06:56:45;;;;;;;5.22;2.85;;;;;;;29.03;44.65;98825.56;6042686;23;20173;-96
2022/09/10 06:59:17;;;;;;;5.82;2.85;;;;;;;29.41;45.32;98829.34;6068175;23;20185;-95
2022/09/10 07:01:59;;;;;;;6.68;2.58;;;;;;;29.76;43.55;98819.97;6069555;23;20157;-95
2022/09/10 07:04:27;;;;;;;5.38;2.35;;;;;;;30.20;42.53;98832.75;6069096;23;20157;-95
2022/09/10 07:07:03;;;;;;;;;;;;;;;;;;;;;
2022/09/10 07:09:28;;;;;;;8.23;2.47;;;;;;;30.68;41.54;98822.41;6069560;23;20204;-95
2022/09/10 07:11:56;;;;;;;4.80;2.95;;;;;;;31.03;41.58;98834.47;6068068;23;20521;-96
2022/09/10 07:14:47;;;;;;;5.63;2.45;;;;;;;31.19;40.00;98837.69;6068694;23;20192;-95
2022/09/10 07:17:15;;;;;;;8.02;2.53;;;;;;;31.50;40.09;98832.28;6068875;23;20149;-95
2022/09/10 07:23:24;;;;;;;5.80;2.25;;;;;;;31.98;38.92;98833.28;6057260;23;20168;-96
2022/09/10 07:25:52;;;;;;;3.75;2.03;;;;;;;31.92;38.50;98831.44;6068031;23;20149;-95
2022/09/10 07:28:34;;;;;;;5.93;2.20;;;;;;;31.68;39.07;98828.78;6068094;23;20220;-96
2022/09/10 07:31:47;;;;;;;3.75;2.20;;;;;;;31.70;39.16;98819.38;6068232;23;20223;-96
2022/09/10 07:34:54;;;;;;;6.60;2.72;;;;;;;31.85;39.64;98813.59;6068268;23;20163;-95
2022/09/10 07:37:31;;;;;;;6.35;2.63;;;;;;;32.19;38.98;98808.44;6068623;23;20573;-95
2022/09/10 07:40:22;;;;;;;4.82;2.53;;;;;;;32.29;38.44;98804.34;6068203;23;20180;-96
2022/09/10 07:42:47;;;;;;;9.68;3.03;;;;;;;32.44;38.96;98791.25;6068517;23;20243;-95
2022/09/10 07:45:17;;;;;;;16.00;4.28;;;;;;;32.55;38.32;98796.75;6068226;23;20157;-95
2022/09/10 07:47:48;;;;;;;4.45;2.40;;;;;;;32.56;38.17;98806.56;6067976;23;20240;-96
2022/09/10 08:05:13;;;;;;;;;;;;;;;;;;;;;
2022/09/10 08:11:44;;;;;;;5.15;2.97;;;;;;;33.95;36.18;98814.16;6067954;23;20165;-96
2022/09/10 08:17:26;;;;;;;7.15;2.47;;;;;;;34.22;34.45;98801.75;6028221;23;20161;-94
2022/09/10 08:19:52;;;;;;;4.60;2.75;;;;;;;33.75;34.60;98805.56;6068648;23;20212;-96
2022/09/10 08:22:30;;;;;;;6.85;3.28;;;;;;;33.63;36.34;98804.72;6067716;23;20157;-96
2022/09/10 08:24:56;;;;;;;8.05;2.95;;;;;;;33.62;35.28;98803.09;6067661;23;20149;-94
2022/09/10 08:27:34;;;;;;;9.60;2.40;;;;;;;33.70;36.37;98805.44;6067723;23;20247;-96
2022/09/10 08:30:05;;;;;;;3.78;2.67;;;;;;;33.53;35.12;98810.72;6067749;23;20153;-96
2022/09/10 08:32:39;;;;;;;3.47;2.33;;;;;;;33.17;36.03;98806.31;6068444;23;20153;-96
2022/09/10 08:35:15;;;;;;;;;;;;;;;;;;;;;
2022/09/10 08:37:43;;;;;;;3.78;2.17;;;;;;;33.55;36.62;98799.59;6069537;23;20216;-96
2022/09/10 08:43:34;;;;;;;4.65;2.50;;;;;;;33.57;35.92;98782.03;6061074;23;20244;-95
2022/09/10 08:46:03;;;;;;;5.65;2.30;;;;;;;33.66;35.42;98777.91;6068201;23;20169;-95
2022/09/10 08:48:35;;;;;;;4.15;2.75;;;;;;;33.77;36.39;98773.50;6068777;23;20184;-96
2022/09/10 08:51:11;;;;;;;3.83;2.33;;;;;;;33.67;35.10;98768.69;6069455;23;20149;-95
2022/09/10 08:53:59;;;;;;;4.35;2.72;;;;;;;33.96;34.84;98778.56;6069619;23;20148;-96
2022/09/10 08:56:27;;;;;;;4.35;2.13;;;;;;;34.09;35.54;98799.28;6071198;23;20176;-95
2022/09/10 08:59:23;;;;;;;4.32;2.53;;;;;;;34.11;35.27;98799.88;6070097;23;20181;-96
2022/09/10 09:02:17;;;;;;;5.03;2.25;;;;;;;33.97;34.72;98780.22;6070418;23;20153;-95
2022/09/10 09:04:47;;;;;;;4.63;2.60;;;;;;;34.01;34.84;98775.13;6068747;23;20157;-95
2022/09/10 09:07:21;;;;;;;4.38;2.20;;;;;;;34.29;34.39;98767.03;6069330;23;20157;-95
2022/09/10 09:09:52;;;;;;;5.80;2.40;;;;;;;34.30;35.10;98765.16;6069457;23;20223;-96
2022/09/10 09:12:35;;;;;;;3.97;2.33;;;;;;;34.57;33.38;98763.53;6069329;23;20157;-95
2022/09/10 09:15:16;;;;;;;4.00;1.95;;;;;;;34.84;34.17;98763.75;6069261;23;20535;-95
2022/09/10 09:17:54;;;;;;;5.13;2.22;;;;;;;35.09;33.58;98761.50;6069646;23;20161;-95
2022/09/10 09:20:44;;;;;;;3.55;2.10;;;;;;;35.23;33.05;98761.97;6069402;23;20153;-96
2022/09/10 09:23:16;;;;;;;5.18;2.30;;;;;;;35.12;32.46;98750.09;6068944;23;20157;-96
2022/09/10 09:25:52;;;;;;;4.45;2.42;;;;;;;35.27;32.99;98735.91;6069023;23;20157;-95
2022/09/10 09:28:38;;;;;;;4.40;2.65;;;;;;;35.34;32.82;98723.75;6070032;23;20557;-95
2022/09/10 09:31:13;;;;;;;5.20;1.98;;;;;;;35.39;32.60;98720.25;6070060;23;20462;-95
2022/09/10 09:33:40;;;;;;;4.03;2.40;;;;;;;35.33;32.89;98719.34;6069088;23;20152;-96
2022/09/10 09:36:12;;;;;;;5.45;2.40;;;;;;;35.33;32.81;98722.09;6069277;23;20633;-95
2022/09/10 09:38:40;;;;;;;3.30;1.75;;;;;;;35.33;33.15;98719.34;6070022;23;20181;-96
2022/09/10 09:41:34;;;;;;;4.65;2.13;;;;;;;35.28;33.04;98713.84;6069087;23;20157;-96
2022/09/10 09:44:24;;;;;;;5.13;2.05;;;;;;;35.56;32.62;98702.03;6070276;23;20164;-96
2022/09/10 09:46:50;;;;;;;3.45;2.53;;;;;;;35.76;31.74;98697.66;6069173;23;20247;-95
2022/09/10 09:49:16;;;;;;;2.88;1.70;;;;;;;35.92;31.40;98698.66;6069351;23;20524;-95
2022/09/10 09:51:50;;;;;;;4.32;2.10;;;;;;;35.52;31.73;98701.66;6069810;23;20176;-95
2022/09/10 09:54:24;;;;;;;4.22;2.40;;;;;;;35.41;32.88;98705.31;6069101;23;20247;-96
2022/09/10 09:56:53;;;;;;;5.22;2.28;;;;;;;35.60;33.11;98700.44;6068969;23;20153;-95
2022/09/10 09:59:30;;;;;;;4.80;2.22;;;;;;;35.69;31.84;98691.53;6074202;23;20182;-96
2022/09/10 10:02:18;;;;;;;4.03;2.47;;;;;;;35.65;31.69;98689.59;6069138;23;20165;-94
2022/09/10 10:05:05;;;;;;;4.30;2.28;;;;;;;35.76;32.91;98681.28;6069211;23;20183;-95
2022/09/10 10:07:33;;;;;;;5.85;2.60;;;;;;;35.77;31.45;98682.91;6068689;23;20202;-96
2022/09/10 10:10:26;;;;;;;5.22;2.60;;;;;;;36.10;32.47;98681.16;6069089;23;20158;-96
2022/09/10 10:12:53;;;;;;;4.28;1.98;;;;;;;36.39;30.96;98666.19;6068512;23;20240;-95
2022/09/10 10:15:36;;;;;;;6.65;2.60;;;;;;;36.59;30.83;98658.22;6068652;23;20257;-95
2022/09/10 10:18:37;;;;;;;4.18;2.42;;;;;;;36.47;30.67;98667.63;6067144;23;20241;-96
2022/09/10 10:24:35;;;;;;;8.30;2.60;;;;;;;36.84;31.31;98663.91;5970234;24;20174;-95
2022/09/10 10:27:01;;;;;;;4.70;2.15;;;;;;;36.94;30.26;98653.09;5986229;24;20577;-96
2022/09/10 10:29:27;;;;;;;7.03;2.72;;;;;;;37.20;29.29;98648.63;6022347;23;20168;-95
2022/09/10 10:31:53;;;;;;;5.85;2.38;;;;;;;37.10;29.49;98642.25;6068846;23;20235;-95
2022/09/10 10:34:39;;;;;;;4.07;2.20;;;;;;;37.08;29.99;98641.69;6069750;23;20187;-94
2022/09/10 10:37:07;;;;;;;8.00;2.75;;;;;;;37.10;29.30;98634.88;6065585;23;20161;-95
2022/09/10 10:39:59;;;;;;;5.63;2.53;;;;;;;37.31;29.28;98622.16;6068338;23;20181;-95
2022/09/10 10:42:37;;;;;;;8.98;2.25;;;;;;;37.61;29.80;98616.06;6068448;23;20240;-95
2022/09/10 10:45:24;;;;;;;7.22;2.45;;;;;;;37.52;28.05;98608.34;6069297;23;20167;-94
2022/09/10 10:48:08;;;;;;;4.75;2.00;;;;;;;37.64;29.06;98607.28;6068519;23;20656;-95
2022/09/10 10:50:53;;;;;;;4.95;2.15;;;;;;;38.00;28.87;98609.09;6068970;23;20157;-95
2022/09/10 10:53:33;;;;;;;4.10;2.70;;;;;;;38.03;28.09;98605.78;6068985;23;20153;-95
2022/09/10 10:56:06;;;;;;;5.43;2.88;;;;;;;37.90;28.12;98601.66;6067793;23;20168;-95
2022/09/10 10:58:59;;;;;;;3.78;2.10;;;;;;;38.12;28.25;98594.06;6066918;23;20181;-95
2022/09/10 11:01:28;;;;;;;5.05;2.67;;;;;;;38.02;28.08;98596.78;6066612;23;20554;-96
2022/09/10 11:04:18;;;;;;;3.45;1.92;;;;;;;37.99;28.19;98591.00;6067936;23;20169;-95
2022/09/10 11:06:50;;;;;;;5.70;2.40;;;;;;;38.15;28.21;98581.75;6070379;23;20157;-95
2022/09/10 11:09:37;;;;;;;4.65;2.25;;;;;;;37.74;29.28;98583.53;6069213;23;20161;-95
2022/09/10 11:12:19;;;;;;;5.60;2.28;;;;;;;37.84;28.53;98572.59;6066608;23;20153;-96
2022/09/10 11:14:54;;;;;;;3.83;2.08;;;;;;;37.94;28.76;98572.69;6068342;23;20149;-96
2022/09/10 11:17:25;;;;;;;7.45;2.30;;;;;;;37.94;28.57;98569.94;6068453;23;20145;-95
2022/09/10 11:20:04;;;;;;;5.38;2.70;;;;;;;38.17;28.42;98568.59;6070178;23;20256;-95
2022/09/10 11:22:37;;;;;;;5.43;2.28;;;;;;;38.06;28.51;98570.50;6069959;23;20565;-96
2022/09/10 11:25:15;;;;;;;6.07;2.50;;;;;;;37.53;28.39;98565.41;6068583;23;20225;-96
2022/09/10 11:27:50;;;;;;;3.65;2.13;;;;;;;37.14;29.07;98556.72;6068460;23;20235;-96
2022/09/10 11:30:16;;;;;;;6.43;2.53;;;;;;;37.07;29.05;98556.16;6068258;23;20595;-95
2022/09/10 11:32:59;;;;;;;4.10;2.42;;;;;;;37.49;29.71;98553.38;6068082;23;20157;-95
2022/09/10 11:35:42;;;;;;;4.00;2.65;;;;;;;37.51;28.50;98551.16;6068313;23;20164;-95
2022/09/10 11:38:41;;;;;;;11.20;2.50;;;;;;;37.79;28.91;98547.97;6067844;23;20201;-96
2022/09/10 11:41:18;;;;;;;4.85;2.20;;;;;;;38.24;29.04;98543.66;6059042;23;20161;-94
2022/09/10 11:44:09;;;;;;;4.15;1.92;;;;;;;38.70;27.73;98543.44;6068155;23;20149;-94
2022/09/10 11:46:42;;;;;;;5.65;2.50;;;;;;;38.69;27.97;98540.94;6067789;23;20562;-94
2022/09/10 11:49:25;;;;;;;4.13;2.55;;;;;;;38.89;28.22;98529.16;6067704;23;20141;-94
2022/09/10 11:51:50;;;;;;;4.90;2.00;;;;;;;39.05;27.08;98528.81;6067617;23;20160;-95
2022/09/10 11:54:22;;;;;;;6.93;2.20;;;;;;;39.17;26.90;98512.91;6066696;23;20494;-94
2022/09/10 11:57:00;;;;;;;3.03;1.80;;;;;;;39.30;27.16;98511.50;6065786;23;20713;-94
2022/09/10 11:59:56;;;;;;;3.75;2.45;;;;;;;39.18;26.37;98506.31;6067788;23;20211;-95
2022/09/10 12:02:33;;;;;;;2.30;1.70;;;;;;;39.02;27.31;98496.47;6067170;23;20169;-94
2022/09/10 12:05:18;;;;;;;6.80;2.35;;;;;;;38.97;27.63;98495.69;6066530;23;20216;-96
2022/09/10 12:07:50;;;;;;;6.72;2.33;;;;;;;38.67;27.57;98494.66;6066120;23;20161;-94
2022/09/10 12:10:29;;;;;;;3.35;2.20;;;;;;;38.77;28.00;98484.78;6068551;23;20160;-94
2022/09/10 12:12:55;;;;;;;5.75;2.00;;;;;;;38.58;27.70;98490.00;6067825;23;20149;-94
2022/09/10 12:15:24;;;;;;;4.45;2.05;;;;;;;38.72;27.81;98485.59;6067695;23;20157;-94
2022/09/10 12:18:05;;;;;;;3.88;1.85;;;;;;;38.72;27.85;98475.47;6067534;23;20161;-94
2022/09/10 12:21:01;;;;;;;6.28;2.75;;;;;;;38.44;27.94;98467.88;6068753;23;20160;-95
2022/09/10 12:23:38;;;;;;;8.43;2.33;;;;;;;38.25;28.27;98469.50;6069987;23;20193;-95
2022/09/10 12:26:10;;;;;;;2.90;2.05;;;;;;;38.66;27.94;98464.78;6070072;23;20156;-95
2022/09/10 12:28:42;;;;;;;4.53;1.95;;;;;;;38.33;28.29;98465.41;6070704;23;20149;-95
2022/09/10 12:31:21;;;;;;;4.57;2.03;;;;;;;38.61;27.67;98457.41;6069334;23;20608;-95
2022/09/10 12:33:46;;;;;;;3.35;2.03;;;;;;;38.66;28.01;98464.78;6070860;23;20558;-94
2022/09/10 12:36:24;;;;;;;11.10;2.50;;;;;;;38.72;27.71;98461.75;6069913;23;20220;-95
2022/09/10 12:39:15;;;;;;;4.65;2.03;;;;;;;38.51;27.91;98456.59;6070393;23;20181;-95
2022/09/10 12:41:40;;;;;;;3.22;1.67;;;;;;;38.72;28.16;98448.06;6070271;23;20157;-96
2022/09/10 12:44:41;;;;;;;3.75;2.13;;;;;;;38.56;27.73;98440.97;6070004;23;20160;-95
2022/09/10 12:47:15;;;;;;;4.82;1.92;;;;;;;38.02;27.93;98453.63;6010318;23;20160;-96
2022/09/10 12:49:53;;;;;;;5.75;1.95;;;;;;;37.94;29.11;98449.53;6071541;23;20180;-95
2022/09/10 12:52:57;;;;;;;4.63;2.08;;;;;;;37.85;28.91;98447.56;6071735;23;20157;-96